Time;durP1;ratioP1;P1;durP2;ratioP2;P2;SDS_P1;SDS_P2;PMS_P1;PMS_P2;Temp;Humidity;BMP_temperature;BMP_pressure;BME280_temperature;BME280_humidity;BME280_pressure;Samples;Min_cycle;Max_cycle;Signal;HPM_P1;HPM_P2
2021/08/20 00:03:49;;;;;;;27.55;18.35;;;;;;;15.13;100.00;101428.31;10456586;28;20074;-74
2021/08/20 00:08:51;;;;;;;27.17;17.73;;;;;;;15.21;100.00;101423.38;10455579;28;20052;-74
2021/08/20 00:13:54;;;;;;;20.05;16.27;;;;;;;14.97;100.00;101432.91;10456117;28;20435;-74
2021/08/20 00:18:56;;;;;;;20.80;16.33;;;;;;;15.07;100.00;101436.63;10456067;28;20052;-75
2021/08/20 00:23:58;;;;;;;19.58;14.75;;;;;;;14.83;100.00;101437.28;10455811;28;20049;-74
2021/08/20 00:29:01;;;;;;;18.08;14.07;;;;;;;14.96;100.00;101426.81;10461285;28;20500;-75
2021/08/20 00:34:04;;;;;;;23.98;15.90;;;;;;;14.97;100.00;101423.19;10464239;28;20048;-74
2021/08/20 00:39:06;;;;;;;23.33;15.90;;;;;;;14.59;100.00;101428.34;10463426;28;20048;-74
2021/08/20 00:44:08;;;;;;;15.60;13.05;;;;;;;14.90;100.00;101431.63;10463277;28;20401;-74
2021/08/20 00:49:12;;;;;;;18.33;15.07;;;;;;;14.63;100.00;101424.56;10463248;28;20072;-73
2021/08/20 00:54:17;;;;;;;20.90;14.73;;;;;;;14.78;100.00;101417.47;10462945;28;20497;-73
2021/08/20 00:59:25;;;;;;;18.38;15.43;;;;;;;14.62;100.00;101409.69;10462075;28;20478;-73
2021/08/20 01:04:27;;;;;;;21.05;14.45;;;;;;;14.66;100.00;101405.94;10463356;28;20041;-75
2021/08/20 01:09:29;;;;;;;23.52;17.75;;;;;;;14.62;100.00;101399.16;10462182;28;20374;-75
2021/08/20 01:14:33;;;;;;;21.65;16.02;;;;;;;14.59;100.00;101417.78;10461107;28;20498;-73
2021/08/20 01:19:37;;;;;;;32.30;16.27;;;;;;;14.59;100.00;101410.75;10462078;28;20049;-73
2021/08/20 01:24:41;;;;;;;21.30;17.25;;;;;;;14.38;100.00;101405.03;10461861;28;20056;-73
2021/08/20 01:29:43;;;;;;;20.67;14.98;;;;;;;14.56;100.00;101402.13;10461318;28;20477;-74
2021/08/20 01:34:46;;;;;;;29.15;19.30;;;;;;;14.32;100.00;101400.13;10461767;28;20048;-72
2021/08/20 01:39:48;;;;;;;27.02;18.52;;;;;;;14.49;100.00;101407.81;10460644;28;20045;-73
2021/08/20 01:44:50;;;;;;;22.15;15.15;;;;;;;14.61;100.00;101406.22;10461103;28;20045;-73
2021/08/20 01:49:52;;;;;;;32.60;18.88;;;;;;;14.44;100.00;101411.69;10460789;28;20049;-74
2021/08/20 01:54:55;;;;;;;25.50;15.90;;;;;;;14.46;100.00;101407.19;10459862;28;20052;-73
2021/08/20 01:59:57;;;;;;;27.52;19.55;;;;;;;14.54;100.00;101417.22;10460265;28;20515;-75
2021/08/20 02:04:59;;;;;;;26.00;19.25;;;;;;;14.67;100.00;101413.72;10460138;28;20041;-74
2021/08/20 02:10:04;;;;;;;25.60;19.60;;;;;;;14.47;100.00;101408.84;10460391;28;20489;-75
2021/08/20 02:15:07;;;;;;;24.33;18.73;;;;;;;14.50;100.00;101413.94;10459999;28;20052;-75
2021/08/20 02:20:10;;;;;;;24.83;17.55;;;;;;;14.49;100.00;101414.84;10459601;28;20597;-72
2021/08/20 02:25:12;;;;;;;28.55;18.67;;;;;;;14.74;100.00;101418.59;10458208;28;20503;-74
2021/08/20 02:30:15;;;;;;;25.35;20.27;;;;;;;14.60;100.00;101416.84;10459368;28;20049;-75
2021/08/20 02:35:17;;;;;;;38.00;22.33;;;;;;;14.81;100.00;101404.06;10459005;28;20520;-74
2021/08/20 02:40:20;;;;;;;26.77;21.75;;;;;;;14.77;100.00;101413.13;10458675;28;20512;-74
2021/08/20 02:45:22;;;;;;;36.95;21.92;;;;;;;14.79;100.00;101401.56;10459019;28;20045;-73
2021/08/20 02:50:25;;;;;;;27.65;20.92;;;;;;;15.01;100.00;101408.88;10456821;28;20053;-73
2021/08/20 02:55:27;;;;;;;29.92;20.45;;;;;;;14.83;100.00;101396.91;10458727;28;20053;-72
2021/08/20 03:00:29;;;;;;;33.60;22.75;;;;;;;14.66;100.00;101400.66;10457918;28;20045;-73
2021/08/20 03:05:32;;;;;;;30.73;21.30;;;;;;;14.81;100.00;101393.50;10458484;28;20044;-75
2021/08/20 03:10:35;;;;;;;29.08;22.55;;;;;;;14.75;100.00;101399.22;10457712;28;20049;-72
2021/08/20 03:15:38;;;;;;;33.03;22.17;;;;;;;14.73;100.00;101401.94;10457683;28;20056;-73
2021/08/20 03:20:40;;;;;;;32.08;25.48;;;;;;;14.75;100.00;101409.75;10457446;28;20540;-74
2021/08/20 03:25:42;;;;;;;32.35;22.45;;;;;;;14.76;100.00;101403.50;10457109;28;20481;-75
2021/08/20 03:30:45;;;;;;;30.48;22.65;;;;;;;14.96;100.00;101410.13;10457163;28;20056;-74
2021/08/20 03:35:47;;;;;;;37.03;23.50;;;;;;;14.83;100.00;101413.56;10456698;28;20057;-74
2021/08/20 03:40:50;;;;;;;41.70;25.90;;;;;;;14.82;100.00;101405.75;10456667;28;20045;-74
2021/08/20 03:45:52;;;;;;;37.65;24.75;;;;;;;14.93;100.00;101398.00;10456839;28;20049;-75
2021/08/20 03:50:55;;;;;;;38.90;24.33;;;;;;;14.90;100.00;101400.81;10456898;28;20484;-74
2021/08/20 03:55:57;;;;;;;29.63;22.48;;;;;;;14.82;100.00;101403.97;10456379;28;20052;-74
2021/08/20 04:00:59;;;;;;;27.83;20.60;;;;;;;15.11;100.00;101402.97;10457126;28;20073;-75
2021/08/20 04:06:02;;;;;;;39.38;26.27;;;;;;;14.79;100.00;101398.03;10464904;28;20400;-75
2021/08/20 04:11:04;;;;;;;39.10;25.98;;;;;;;14.80;100.00;101402.38;10464423;28;20413;-74
2021/08/20 04:16:07;;;;;;;26.08;20.52;;;;;;;14.88;100.00;101404.50;10464115;28;20049;-76
2021/08/20 04:21:09;;;;;;;29.38;20.75;;;;;;;15.09;100.00;101410.16;10463286;28;20083;-74
2021/08/20 04:26:12;;;;;;;30.85;21.23;;;;;;;14.96;100.00;101405.72;10464115;28;20049;-74
2021/08/20 04:31:14;;;;;;;31.63;21.05;;;;;;;14.89;100.00;101406.19;10464071;28;20058;-74
2021/08/20 04:36:17;;;;;;;29.90;19.42;;;;;;;15.02;100.00;101413.19;10463832;28;20110;-75
2021/08/20 04:41:19;;;;;;;34.13;22.95;;;;;;;15.00;100.00;101409.81;10463686;28;20052;-74
2021/08/20 04:46:21;;;;;;;46.28;27.98;;;;;;;14.93;100.00;101413.81;10463021;28;20068;-76
2021/08/20 04:51:24;;;;;;;33.55;23.15;;;;;;;14.95;100.00;101424.25;10463198;28;20045;-75
2021/08/20 04:56:26;;;;;;;28.30;18.90;;;;;;;15.19;100.00;101430.53;10461608;28;20132;-75
2021/08/20 05:01:28;;;;;;;37.55;26.02;;;;;;;15.13;100.00;101424.81;10461583;28;20477;-75
2021/08/20 05:06:31;;;;;;;31.13;23.00;;;;;;;15.12;100.00;101426.63;10462593;28;20049;-74
2021/08/20 05:11:37;;;;;;;37.53;24.73;;;;;;;15.16;100.00;101435.16;10461883;28;20511;-76
2021/08/20 05:16:39;;;;;;;31.90;21.40;;;;;;;15.05;100.00;101435.88;10462777;28;20052;-74
2021/08/20 05:21:42;;;;;;;36.38;26.88;;;;;;;15.16;100.00;101443.06;10462034;28;20049;-75
2021/08/20 05:26:44;;;;;;;33.97;22.00;;;;;;;15.33;100.00;101448.09;10461559;28;20045;-74
2021/08/20 05:31:46;;;;;;;34.78;22.70;;;;;;;15.27;100.00;101448.50;10462296;28;20052;-74
2021/08/20 05:36:49;;;;;;;29.35;20.38;;;;;;;15.37;100.00;101449.56;10461422;28;20045;-76
2021/08/20 05:41:51;;;;;;;38.17;23.40;;;;;;;15.38;100.00;101450.41;10461783;28;20041;-75
2021/08/20 05:46:54;;;;;;;34.05;22.80;;;;;;;15.37;100.00;101457.47;10460767;28;20045;-75
2021/08/20 05:51:56;;;;;;;35.70;23.55;;;;;;;15.46;100.00;101452.53;10460724;28;20497;-75
2021/08/20 05:57:01;;;;;;;27.75;20.55;;;;;;;15.64;100.00;101466.28;10460448;28;20053;-75
2021/08/20 06:02:03;;;;;;;31.10;22.83;;;;;;;15.65;100.00;101471.47;10460543;28;20045;-75
2021/08/20 06:07:07;;;;;;;22.98;16.67;;;;;;;15.75;100.00;101467.25;10460120;28;20049;-75
2021/08/20 06:12:09;;;;;;;27.30;19.95;;;;;;;15.71;100.00;101478.09;10460284;28;20049;-75
2021/08/20 06:17:11;;;;;;;26.48;19.40;;;;;;;15.98;100.00;101467.47;10460609;28;20053;-75
2021/08/20 06:22:14;;;;;;;28.65;19.33;;;;;;;15.94;100.00;101487.13;10459642;28;20056;-75
2021/08/20 06:27:16;;;;;;;25.80;18.88;;;;;;;15.85;100.00;101482.47;10458743;28;20056;-75
2021/08/20 06:32:18;;;;;;;28.02;19.33;;;;;;;15.84;100.00;101484.25;10459752;28;20128;-75
2021/08/20 06:37:21;;;;;;;21.65;15.60;;;;;;;16.04;100.00;101482.03;10457934;28;20053;-75
2021/08/20 06:42:23;;;;;;;26.13;18.48;;;;;;;16.27;100.00;101483.06;10459484;28;20049;-64
2021/08/20 06:47:25;;;;;;;21.85;15.95;;;;;;;16.42;100.00;101481.13;10458685;28;20044;-74
2021/08/20 06:52:29;;;;;;;21.98;16.20;;;;;;;16.84;100.00;101489.56;10459002;28;20041;-74
2021/08/20 06:57:31;;;;;;;20.73;15.80;;;;;;;16.88;100.00;101481.34;10457994;28;20428;-74
2021/08/20 07:02:43;;;;;;;19.48;15.20;;;;;;;16.75;100.00;101484.97;10458201;28;20045;-75
2021/08/20 07:07:47;;;;;;;27.60;18.33;;;;;;;16.75;100.00;101487.59;10458312;28;20056;-74
2021/08/20 07:12:50;;;;;;;28.58;19.73;;;;;;;16.80;100.00;101499.53;10457713;28;20052;-74
2021/08/20 07:17:53;;;;;;;23.33;18.63;;;;;;;16.99;100.00;101490.28;10457573;28;20476;-73
2021/08/20 07:22:55;;;;;;;20.33;17.58;;;;;;;17.20;100.00;101496.63;10457374;28;20049;-74
2021/08/20 07:27:57;;;;;;;21.08;17.45;;;;;;;17.45;100.00;101500.94;10456900;28;20128;-75
2021/08/20 07:32:59;;;;;;;17.75;14.52;;;;;;;17.94;98.48;101488.41;10457352;28;20048;-74
2021/08/20 07:38:02;;;;;;;25.90;18.02;;;;;;;18.41;96.75;101490.09;10457027;28;20053;-74
2021/08/20 07:43:05;;;;;;;21.85;16.27;;;;;;;18.94;94.50;101492.91;10457681;28;20045;-75
2021/08/20 07:48:09;;;;;;;21.08;16.20;;;;;;;18.80;94.16;101496.66;10456236;28;20119;-75
2021/08/20 07:53:11;;;;;;;19.75;15.25;;;;;;;18.89;97.18;101508.34;10457034;28;20106;-74
2021/08/20 07:58:13;;;;;;;15.80;13.25;;;;;;;19.93;91.08;101511.25;10456338;28;20481;-74
2021/08/20 08:03:16;;;;;;;18.23;13.07;;;;;;;20.27;91.08;101513.66;10456257;28;20045;-74
2021/08/20 08:08:19;;;;;;;15.95;14.23;;;;;;;19.99;92.53;101519.53;10456414;28;20056;-74
2021/08/20 08:13:21;;;;;;;11.90;10.57;;;;;;;21.04;87.77;101523.66;10456268;28;20048;-74
2021/08/20 08:18:23;;;;;;;13.32;11.18;;;;;;;21.67;85.16;101511.72;10455867;28;20059;-75
2021/08/20 08:23:26;;;;;;;11.90;10.70;;;;;;;21.71;85.05;101511.31;10455932;28;20060;-75
2021/08/20 08:28:28;;;;;;;11.20;9.73;;;;;;;21.44;84.28;101503.19;10455897;28;20045;-74
2021/08/20 08:33:31;;;;;;;11.50;10.30;;;;;;;20.77;85.49;101513.69;10455671;28;20045;-74
2021/08/20 08:38:35;;;;;;;10.45;8.80;;;;;;;20.70;87.13;101518.72;10456155;28;20049;-74
2021/08/20 08:43:38;;;;;;;11.27;10.13;;;;;;;20.91;85.43;101523.94;10456051;28;20045;-75
2021/08/20 08:48:41;;;;;;;9.30;8.40;;;;;;;23.30;78.12;101509.38;10458737;28;20052;-74
2021/08/20 08:53:43;;;;;;;9.88;8.95;;;;;;;23.03;75.73;101522.78;10463819;28;20047;-73
2021/08/20 08:58:46;;;;;;;10.95;9.02;;;;;;;22.85;78.09;101514.75;10462952;28;20057;-74
2021/08/20 09:04:09;;;;;;;9.45;8.55;;;;;;;22.47;77.52;101511.34;10462896;28;20058;-74
2021/08/20 09:09:14;;;;;;;11.25;10.13;;;;;;;21.89;81.68;101508.75;10462281;28;20108;-74
2021/08/20 09:14:17;;;;;;;9.73;8.32;;;;;;;21.27;84.74;101520.75;10461933;28;20052;-74
2021/08/20 09:19:21;;;;;;;8.80;7.55;;;;;;;21.34;82.93;101516.53;10461542;28;20048;-75
2021/08/20 09:24:41;;;;;;;9.90;8.82;;;;;;;20.97;83.78;101533.19;10461813;28;20397;-75
2021/08/20 09:29:56;;;;;;;9.75;8.48;;;;;;;21.06;83.59;101535.00;10461505;28;20527;-74
2021/08/20 09:34:59;;;;;;;9.95;8.95;;;;;;;21.02;84.65;101549.59;10461433;28;20051;-76
2021/08/20 09:40:11;;;;;;;13.45;10.43;;;;;;;20.80;85.10;101547.19;10461526;28;20055;-78
2021/08/20 09:45:16;;;;;;;10.50;8.85;;;;;;;20.36;87.82;101547.44;10461556;28;20047;-75
2021/08/20 09:50:21;;;;;;;12.55;10.10;;;;;;;20.60;85.99;101550.56;10460948;28;20049;-75
2021/08/20 09:55:37;;;;;;;12.82;9.75;;;;;;;20.81;87.40;101549.66;10460794;28;20053;-75
2021/08/20 10:00:42;;;;;;;11.15;8.60;;;;;;;21.07;85.09;101552.66;10459712;28;20048;-74
2021/08/20 10:05:46;;;;;;;8.13;7.28;;;;;;;21.04;80.80;101546.78;10460325;28;20067;-74
2021/08/20 10:10:50;;;;;;;7.35;6.47;;;;;;;22.27;77.20;101544.28;10460069;28;20047;-76
2021/08/20 10:15:52;;;;;;;10.02;8.10;;;;;;;21.73;76.91;101552.97;10459998;28;20052;-74
2021/08/20 10:20:56;;;;;;;7.28;6.43;;;;;;;22.48;74.69;101545.88;10458472;28;20460;-74
2021/08/20 10:25:58;;;;;;;8.68;7.70;;;;;;;22.14;80.82;101557.09;10458851;28;20055;-76
2021/08/20 10:31:01;;;;;;;7.18;6.47;;;;;;;21.52;80.65;101560.16;10458302;28;20049;-75
2021/08/20 10:36:04;;;;;;;8.98;8.10;;;;;;;20.91;82.28;101566.53;10459390;28;20049;-75
2021/08/20 10:41:08;;;;;;;9.43;8.27;;;;;;;22.22;82.47;101565.19;10458819;28;20052;-77
2021/08/20 10:46:10;;;;;;;9.07;8.18;;;;;;;21.25;81.99;101566.16;10457958;28;20052;-75
2021/08/20 10:51:48;;;;;;;8.27;7.00;;;;;;;21.59;80.04;101572.91;10457395;28;20045;-74
2021/08/20 10:56:50;;;;;;;11.55;8.95;;;;;;;22.96;79.39;101567.94;10458334;28;20045;-74
2021/08/20 11:01:53;;;;;;;10.88;9.77;;;;;;;23.11;75.35;101565.63;10458186;28;20059;-76
2021/08/20 11:06:56;;;;;;;9.20;8.27;;;;;;;24.01;72.13;101560.22;10457358;28;20045;-76
2021/08/20 11:11:59;;;;;;;9.15;8.25;;;;;;;23.03;78.37;101569.00;10457318;28;20063;-75
2021/08/20 11:17:02;;;;;;;10.30;9.20;;;;;;;26.14;66.47;101563.31;10457878;28;20060;-74
2021/08/20 11:22:24;;;;;;;11.55;9.90;;;;;;;25.67;68.23;101568.56;10457701;28;20059;-74
2021/08/20 11:27:27;;;;;;;10.77;9.77;;;;;;;27.16;64.79;101565.16;10457005;28;20481;-74
2021/08/20 11:32:29;;;;;;;10.82;9.73;;;;;;;25.44;65.89;101561.19;10455980;28;20051;-72
2021/08/20 11:37:31;;;;;;;11.98;10.77;;;;;;;23.62;70.12;101572.09;10456948;28;20053;-72
2021/08/20 11:42:34;;;;;;;11.95;10.85;;;;;;;22.95;72.49;101574.28;10456825;28;20490;-71
2021/08/20 11:47:37;;;;;;;11.40;10.30;;;;;;;22.94;73.04;101578.75;10456595;28;20497;-71
2021/08/20 11:52:48;;;;;;;14.30;12.75;;;;;;;22.14;74.32;101578.41;10455313;28;20485;-71
2021/08/20 11:57:51;;;;;;;11.13;10.07;;;;;;;26.39;65.80;101573.94;10456461;28;20052;-70
2021/08/20 12:03:05;;;;;;;13.13;11.82;;;;;;;27.14;60.23;101569.88;10456211;28;20124;-71
2021/08/20 12:08:18;;;;;;;16.48;14.82;;;;;;;24.18;68.37;101575.34;10456616;28;20529;-70
2021/08/20 12:13:20;;;;;;;16.05;14.07;;;;;;;26.15;62.25;101569.50;10456511;28;20041;-69
2021/08/20 12:18:29;;;;;;;14.23;12.57;;;;;;;23.86;71.24;101579.50;10455945;28;20114;-70
2021/08/20 12:23:31;;;;;;;15.80;14.13;;;;;;;23.16;75.01;101582.88;10459977;28;20045;-69
2021/08/20 12:28:40;;;;;;;17.60;15.82;;;;;;;22.84;76.06;101588.66;10464193;28;20049;-69
2021/08/20 12:34:02;;;;;;;18.83;15.55;;;;;;;22.79;76.74;101589.09;10464062;28;20049;-70
2021/08/20 12:39:15;;;;;;;15.65;14.15;;;;;;;22.89;76.95;101585.56;10462788;28;20053;-70
2021/08/20 12:44:30;;;;;;;12.50;11.30;;;;;;;26.49;65.90;101584.47;10463647;28;20110;-70
2021/08/20 12:49:33;;;;;;;12.95;11.75;;;;;;;26.46;62.91;101580.31;10463712;28;20045;-68
2021/08/20 12:54:35;;;;;;;15.45;14.02;;;;;;;24.42;64.98;101579.97;10463340;28;20045;-69
2021/08/20 12:59:39;;;;;;;14.30;13.00;;;;;;;27.50;59.71;101577.34;10462889;28;20481;-70
2021/08/20 13:04:41;;;;;;;13.30;11.98;;;;;;;26.16;63.59;101578.38;10462989;28;20045;-68
2021/08/20 13:09:43;;;;;;;12.73;11.35;;;;;;;25.95;59.98;101569.88;10462462;28;20045;-69
2021/08/20 13:14:46;;;;;;;12.73;11.55;;;;;;;25.90;61.86;101579.41;10462592;28;20051;-69
2021/08/20 13:19:50;;;;;;;13.35;12.15;;;;;;;27.33;55.23;101573.97;10462125;28;20065;-69
2021/08/20 13:24:56;;;;;;;12.60;11.45;;;;;;;28.21;55.41;101571.66;10462096;28;20091;-72
2021/08/20 13:29:58;;;;;;;14.70;12.32;;;;;;;27.06;53.61;101568.09;10461486;28;20045;-70
2021/08/20 13:35:01;;;;;;;10.48;9.68;;;;;;;27.00;59.12;101563.44;10461791;28;20072;-72
2021/08/20 13:40:03;;;;;;;10.38;8.35;;;;;;;28.13;54.91;101561.81;10461520;28;20053;-71
2021/08/20 13:45:06;;;;;;;11.20;10.20;;;;;;;27.97;53.20;101551.22;10461818;28;20049;-72
2021/08/20 13:50:09;;;;;;;10.75;9.77;;;;;;;28.35;52.43;101560.03;10460982;28;20052;-73
2021/08/20 13:55:12;;;;;;;9.43;8.50;;;;;;;29.21;54.86;101563.94;10460033;28;20041;-72
2021/08/20 14:00:15;;;;;;;10.32;8.85;;;;;;;30.10;47.49;101558.00;10460624;28;20409;-71
2021/08/20 14:05:18;;;;;;;10.25;9.25;;;;;;;26.73;56.97;101566.59;10459415;28;20049;-70
2021/08/20 14:10:20;;;;;;;11.30;10.30;;;;;;;25.77;59.12;101563.84;10459901;28;20056;-70
2021/08/20 14:15:22;;;;;;;8.60;7.70;;;;;;;25.53;63.74;101560.19;10460002;28;20052;-72
2021/08/20 14:20:25;;;;;;;9.25;8.43;;;;;;;25.53;61.89;101570.06;10460185;28;20049;-71
2021/08/20 14:25:27;;;;;;;10.07;9.07;;;;;;;24.54;63.74;101569.81;10459855;28;20048;-70
2021/08/20 14:30:29;;;;;;;9.07;8.35;;;;;;;24.62;70.80;101572.56;10459242;28;20052;-71
2021/08/20 14:35:32;;;;;;;8.57;7.80;;;;;;;25.48;66.72;101572.41;10459161;28;20049;-71
2021/08/20 14:40:34;;;;;;;11.15;10.15;;;;;;;25.03;62.85;101574.50;10458938;28;20057;-72
2021/08/20 14:45:36;;;;;;;8.90;8.07;;;;;;;24.74;65.98;101572.28;10458147;28;20053;-71
2021/08/20 14:50:39;;;;;;;9.88;8.82;;;;;;;24.09;67.90;101570.94;10458106;28;20485;-72
2021/08/20 14:55:41;;;;;;;8.45;7.65;;;;;;;24.38;68.01;101580.47;10458139;28;20382;-71
2021/08/20 15:00:44;;;;;;;8.00;7.30;;;;;;;24.36;68.42;101587.78;10458570;28;20045;-70
2021/08/20 15:05:46;;;;;;;7.13;6.53;;;;;;;24.55;67.49;101584.09;10458286;28;20049;-72
2021/08/20 15:10:48;;;;;;;7.03;5.70;;;;;;;24.32;67.49;101591.81;10456530;28;20052;-69
2021/08/20 15:15:51;;;;;;;6.07;5.55;;;;;;;24.96;64.33;101592.25;10457349;28;20052;-71
2021/08/20 15:20:53;;;;;;;5.43;4.93;;;;;;;24.03;68.18;101604.50;10458142;28;20061;-70
2021/08/20 15:25:56;;;;;;;6.22;5.72;;;;;;;24.06;67.27;101600.69;10457222;28;20064;-69
2021/08/20 15:30:59;;;;;;;5.97;5.38;;;;;;;25.16;64.01;101598.97;10456963;28;20474;-71
2021/08/20 15:36:02;;;;;;;6.28;5.70;;;;;;;24.74;65.39;101601.72;10456888;28;20434;-70
2021/08/20 15:41:07;;;;;;;7.80;7.10;;;;;;;23.90;69.60;101598.72;10456859;28;20481;-71
2021/08/20 15:46:10;;;;;;;7.47;6.53;;;;;;;23.10;72.97;101590.63;10457027;28;20045;-71
2021/08/20 15:51:12;;;;;;;8.18;7.43;;;;;;;23.45;71.48;101602.34;10456366;28;20055;-71
2021/08/20 15:56:18;;;;;;;9.00;7.50;;;;;;;23.37;72.61;101611.97;10455559;28;20049;-70
2021/08/20 16:01:21;;;;;;;7.22;6.63;;;;;;;23.44;71.75;101593.50;10456151;28;20417;-71
2021/08/20 16:06:23;;;;;;;6.38;4.93;;;;;;;24.03;68.92;101601.84;10456292;28;20041;-70
2021/08/20 16:11:26;;;;;;;6.85;5.50;;;;;;;23.92;67.64;101604.75;10456853;28;20053;-72
2021/08/20 16:16:29;;;;;;;5.85;5.35;;;;;;;22.99;71.87;101607.69;10455810;28;20451;-70
2021/08/20 16:21:31;;;;;;;7.20;5.57;;;;;;;23.19;71.49;101611.94;10456394;28;20049;-69
2021/08/20 16:26:33;;;;;;;6.65;6.15;;;;;;;23.18;71.81;101604.94;10455945;28;20061;-70
2021/08/20 16:31:36;;;;;;;7.35;6.47;;;;;;;22.48;74.11;101612.59;10455868;28;20053;-70
2021/08/20 16:36:38;;;;;;;6.93;6.32;;;;;;;22.84;73.29;101609.19;10455933;28;20049;-70
2021/08/20 16:41:41;;;;;;;8.52;7.68;;;;;;;22.28;75.50;101603.81;10455736;28;20049;-69
2021/08/20 16:46:44;;;;;;;9.60;7.40;;;;;;;22.40;76.03;101610.63;10455416;28;20045;-68
2021/08/20 16:51:48;;;;;;;9.10;8.30;;;;;;;22.14;75.81;101605.09;10455540;28;20068;-69
2021/08/20 16:56:51;;;;;;;9.25;8.35;;;;;;;21.82;78.55;101608.94;10455904;28;20132;-69
2021/08/20 17:01:53;;;;;;;9.05;7.97;;;;;;;21.98;78.00;101610.16;10455841;28;20052;-70
2021/08/20 17:06:55;;;;;;;12.90;10.05;;;;;;;21.70;79.22;101607.38;10454918;28;20049;-70
2021/08/20 17:11:58;;;;;;;8.98;8.13;;;;;;;22.03;79.23;101607.91;10461589;28;20041;-69
2021/08/20 17:17:02;;;;;;;9.95;8.98;;;;;;;21.96;79.54;101614.81;10462244;28;20409;-69
2021/08/20 17:22:08;;;;;;;10.63;9.73;;;;;;;21.13;84.14;101613.38;10462372;28;20049;-70
2021/08/20 17:27:10;;;;;;;8.63;7.93;;;;;;;21.17;85.47;101621.09;10461869;28;20048;-69
2021/08/20 17:32:12;;;;;;;8.98;8.07;;;;;;;20.97;88.66;101618.38;10462297;28;20045;-70
2021/08/20 17:37:15;;;;;;;12.50;8.25;;;;;;;20.87;87.95;101622.81;10461535;28;20045;-69
2021/08/20 17:42:17;;;;;;;8.20;7.50;;;;;;;20.69;91.31;101614.63;10462025;28;20055;-69
2021/08/20 17:47:20;;;;;;;9.27;8.43;;;;;;;20.40;92.34;101618.81;10461096;28;20045;-70
2021/08/20 17:52:22;;;;;;;6.63;6.00;;;;;;;20.91;87.41;101625.09;10461220;28;20041;-69
2021/08/20 17:57:24;;;;;;;5.82;3.65;;;;;;;20.76;86.28;101631.72;10460688;28;20492;-69
2021/08/20 18:02:27;;;;;;;3.83;3.53;;;;;;;20.46;87.72;101625.44;10460774;28;20092;-71
2021/08/20 18:07:29;;;;;;;4.03;3.05;;;;;;;20.22;90.12;101639.00;10459339;28;20052;-69
2021/08/20 18:12:31;;;;;;;2.40;2.20;;;;;;;20.00;90.52;101646.13;10460709;28;20045;-69
2021/08/20 18:17:36;;;;;;;3.72;3.10;;;;;;;20.18;87.27;101642.91;10459995;28;20110;-70
2021/08/20 18:22:39;;;;;;;4.80;2.95;;;;;;;19.86;90.94;101641.97;10459637;28;20044;-69
2021/08/20 18:27:42;;;;;;;4.30;2.35;;;;;;;19.48;93.85;101640.66;10459830;28;20393;-70
2021/08/20 18:32:44;;;;;;;2.85;2.22;;;;;;;19.35;95.24;101658.56;10459407;28;20063;-70
2021/08/20 18:37:47;;;;;;;5.22;2.28;;;;;;;19.07;97.21;101654.63;10459832;28;20075;-68
2021/08/20 18:42:50;;;;;;;2.58;2.35;;;;;;;19.06;97.06;101661.75;10459201;28;20079;-70
2021/08/20 18:47:52;;;;;;;2.55;2.35;;;;;;;18.65;100.00;101667.63;10458878;28;20072;-68
2021/08/20 18:52:56;;;;;;;3.75;2.92;;;;;;;18.67;100.00;101671.84;10458711;28;20547;-70
2021/08/20 18:57:59;;;;;;;7.30;3.35;;;;;;;18.41;100.00;101675.66;10458508;28;20048;-69
2021/08/20 19:03:02;;;;;;;4.63;2.70;;;;;;;18.49;100.00;101687.41;10458352;28;20079;-71
2021/08/20 19:08:05;;;;;;;4.72;2.80;;;;;;;18.29;100.00;101696.00;10458604;28;20048;-71
2021/08/20 19:13:10;;;;;;;3.92;2.45;;;;;;;18.09;100.00;101698.38;10458285;28;20049;-70
2021/08/20 19:18:12;;;;;;;7.60;2.70;;;;;;;18.02;100.00;101699.75;10458267;28;20063;-70
2021/08/20 19:23:15;;;;;;;2.83;2.13;;;;;;;17.81;100.00;101703.03;10457552;28;20398;-71
2021/08/20 19:28:19;;;;;;;2.80;2.33;;;;;;;17.77;100.00;101716.59;10457305;28;20045;-70
2021/08/20 19:33:21;;;;;;;3.50;2.70;;;;;;;17.56;100.00;101716.38;10455842;28;20044;-70
2021/08/20 19:38:23;;;;;;;2.55;1.92;;;;;;;17.63;100.00;101717.63;10456936;28;20053;-70
2021/08/20 19:43:27;;;;;;;8.77;2.72;;;;;;;17.55;100.00;101719.97;10456841;28;20052;-69
2021/08/20 19:48:29;;;;;;;4.03;2.60;;;;;;;17.60;100.00;101729.28;10456769;28;20051;-69
2021/08/20 19:53:31;;;;;;;3.33;2.22;;;;;;;17.37;100.00;101735.41;10456574;28;20045;-68
2021/08/20 19:58:34;;;;;;;3.40;2.83;;;;;;;17.29;100.00;101730.63;10456349;28;20423;-71
2021/08/20 20:03:36;;;;;;;6.10;2.60;;;;;;;17.17;100.00;101732.34;10455421;28;20049;-69
2021/08/20 20:08:39;;;;;;;4.00;2.70;;;;;;;17.20;100.00;101734.78;10456018;28;20056;-70
2021/08/20 20:13:41;;;;;;;4.57;3.08;;;;;;;17.04;100.00;101740.28;10456652;28;20045;-69
2021/08/20 20:18:45;;;;;;;6.05;3.00;;;;;;;17.01;100.00;101744.94;10456052;28;20063;-70
2021/08/20 20:23:48;;;;;;;4.78;3.00;;;;;;;17.11;100.00;101745.16;10456066;28;20052;-70
2021/08/20 20:28:50;;;;;;;8.32;3.50;;;;;;;16.79;100.00;101751.69;10455654;28;20508;-70
2021/08/20 20:33:52;;;;;;;12.40;3.80;;;;;;;16.90;100.00;101746.56;10456452;28;20041;-70
2021/08/20 20:38:55;;;;;;;9.25;4.32;;;;;;;16.92;100.00;101753.53;10455537;28;20504;-69
2021/08/20 20:43:57;;;;;;;6.97;4.85;;;;;;;16.91;100.00;101755.31;10458352;28;20053;-69
2021/08/20 20:49:00;;;;;;;11.23;5.15;;;;;;;17.01;100.00;101750.25;10463607;28;20045;-69
2021/08/20 20:54:03;;;;;;;6.20;4.57;;;;;;;17.04;100.00;101761.44;10464205;28;20041;-70
2021/08/20 20:59:05;;;;;;;6.70;4.88;;;;;;;16.62;100.00;101763.41;10462934;28;20408;-70
2021/08/20 21:04:08;;;;;;;5.25;4.43;;;;;;;16.84;100.00;101757.53;10463075;28;20049;-71
2021/08/20 21:09:10;;;;;;;4.85;4.45;;;;;;;16.70;100.00;101758.47;10462573;28;20045;-69
2021/08/20 21:14:12;;;;;;;5.88;4.53;;;;;;;16.65;100.00;101762.38;10462869;28;20041;-69
2021/08/20 21:19:19;;;;;;;6.18;4.72;;;;;;;16.74;100.00;101759.09;10461754;28;20061;-69
2021/08/20 21:24:21;;;;;;;7.75;4.88;;;;;;;16.60;100.00;101761.84;10462165;28;20490;-69
2021/08/20 21:29:24;;;;;;;8.77;5.60;;;;;;;16.49;100.00;101754.63;10462219;28;20057;-70
2021/08/20 21:34:26;;;;;;;9.18;5.10;;;;;;;16.27;100.00;101755.22;10461818;28;20409;-69
2021/08/20 21:39:29;;;;;;;6.32;4.63;;;;;;;16.39;100.00;101759.69;10461526;28;20053;-71
2021/08/20 21:44:31;;;;;;;7.28;5.15;;;;;;;16.16;100.00;101756.78;10462155;28;20044;-69
2021/08/20 21:49:34;;;;;;;7.32;5.25;;;;;;;16.21;100.00;101756.47;10460868;28;20392;-69
2021/08/20 21:54:37;;;;;;;6.85;5.82;;;;;;;16.09;100.00;101770.50;10461647;28;20048;-70
2021/08/20 21:59:39;;;;;;;6.00;5.10;;;;;;;15.90;100.00;101770.81;10459943;28;20049;-69
2021/08/20 22:04:41;;;;;;;6.53;5.78;;;;;;;15.93;100.00;101776.75;10460802;28;20041;-70
2021/08/20 22:09:43;;;;;;;14.90;6.45;;;;;;;15.86;100.00;101770.19;10460548;28;20089;-70
2021/08/20 22:14:46;;;;;;;8.10;5.03;;;;;;;16.05;100.00;101772.47;10460359;28;20060;-70
2021/08/20 22:19:48;;;;;;;7.45;5.15;;;;;;;16.03;100.00;101771.72;10459973;28;20053;-71
2021/08/20 22:24:51;;;;;;;8.88;5.65;;;;;;;15.89;100.00;101775.28;10459961;28;20045;-69
2021/08/20 22:29:53;;;;;;;10.00;6.88;;;;;;;15.51;100.00;101769.75;10459367;28;20489;-69
2021/08/20 22:34:55;;;;;;;14.65;7.38;;;;;;;15.44;100.00;101765.81;10459425;28;20041;-70
2021/08/20 22:39:58;;;;;;;9.15;6.28;;;;;;;15.50;100.00;101770.69;10459163;28;20064;-70
2021/08/20 22:45:06;;;;;;;10.25;8.18;;;;;;;15.37;100.00;101771.47;10459481;28;20045;-70
2021/08/20 22:50:09;;;;;;;8.35;6.53;;;;;;;15.39;100.00;101769.56;10458631;28;20052;-70